Time;durP1;ratioP1;P1;durP2;ratioP2;P2;SDS_P1;SDS_P2;PMS_P1;PMS_P2;Temp;Humidity;BMP_temperature;BMP_pressure;BME280_temperature;BME280_humidity;BME280_pressure;Samples;Min_cycle;Max_cycle;Signal;HPM_P1;HPM_P2
2021/06/25 00:00:44;;;;;;;6.25;3.67;;;16.60;78.20;;;;;;4975863;28;20031;-79
2021/06/25 00:03:10;;;;;;;6.28;3.65;;;16.60;78.20;;;;;;4974502;28;20026;-79
2021/06/25 00:05:35;;;;;;;6.15;3.20;;;16.50;78.20;;;;;;4994700;28;20390;-79
2021/06/25 00:08:01;;;;;;;5.70;3.45;;;16.50;78.30;;;;;;4977779;28;20081;-78
2021/06/25 00:10:27;;;;;;;4.88;3.47;;;16.40;78.40;;;;;;4994276;28;20026;-78
2021/06/25 00:12:53;;;;;;;5.53;3.17;;;16.40;78.50;;;;;;4977452;28;20419;-78
2021/06/25 00:15:18;;;;;;;7.63;3.20;;;16.40;78.60;;;;;;4994434;28;20077;-79
2021/06/25 00:17:44;;;;;;;6.18;3.47;;;16.30;78.60;;;;;;4977514;28;20026;-78
2021/06/25 00:20:12;;;;;;;6.05;3.53;;;16.30;78.80;;;;;;4995310;28;20026;-79
2021/06/25 00:22:37;;;;;;;4.97;3.22;;;16.30;78.90;;;;;;4976722;28;20027;-80
2021/06/25 00:25:04;;;;;;;6.38;3.63;;;16.30;78.80;;;;;;4995277;28;20026;-78
2021/06/25 00:27:30;;;;;;;4.85;3.03;;;16.20;78.90;;;;;;4976932;28;20062;-79
2021/06/25 00:29:55;;;;;;;5.72;3.47;;;16.20;79.00;;;;;;4977361;28;20030;-78
2021/06/25 00:32:21;;;;;;;7.18;3.53;;;16.10;79.10;;;;;;4976695;28;20058;-79
2021/06/25 00:34:47;;;;;;;5.22;3.10;;;16.10;79.20;;;;;;4994681;28;20033;-79
2021/06/25 00:37:12;;;;;;;6.85;3.83;;;16.00;79.20;;;;;;4977294;28;20076;-78
2021/06/25 00:39:38;;;;;;;8.57;3.67;;;16.00;79.20;;;;;;4994102;28;20177;-78
2021/06/25 00:42:06;;;;;;;6.65;4.07;;;15.90;79.30;;;;;;4994475;28;20062;-79
2021/06/25 00:44:32;;;;;;;7.03;3.80;;;15.90;79.30;;;;;;4993648;28;20031;-79
2021/06/25 00:46:57;;;;;;;6.90;3.70;;;15.90;79.30;;;;;;4977224;28;20381;-79
2021/06/25 00:49:23;;;;;;;6.65;4.18;;;15.90;79.30;;;;;;4976288;28;20459;-80
2021/06/25 00:51:49;;;;;;;8.57;4.05;;;15.90;79.20;;;;;;4995070;28;20081;-79
2021/06/25 00:54:15;;;;;;;6.57;4.00;;;15.80;79.20;;;;;;4976854;28;20023;-79
2021/06/25 00:56:42;;;;;;;8.25;3.80;;;15.90;79.30;;;;;;4993754;28;20616;-80
2021/06/25 00:59:08;;;;;;;5.78;3.63;;;15.90;79.30;;;;;;4994600;28;20076;-79
2021/06/25 01:01:34;;;;;;;7.03;4.35;;;15.80;79.30;;;;;;4993255;28;20030;-79
2021/06/25 01:03:59;;;;;;;7.07;4.05;;;15.80;79.40;;;;;;4994434;28;20026;-78
2021/06/25 01:06:28;;;;;;;8.48;4.25;;;15.80;79.40;;;;;;4993558;28;20054;-78
2021/06/25 01:08:54;;;;;;;6.05;3.83;;;15.80;79.50;;;;;;4976877;28;20117;-79
2021/06/25 01:11:20;;;;;;;6.70;3.88;;;15.80;79.60;;;;;;4976327;28;20097;-80
2021/06/25 01:13:46;;;;;;;8.50;4.13;;;15.70;79.60;;;;;;4994280;28;20434;-79
2021/06/25 01:16:14;;;;;;;7.70;4.45;;;15.70;79.80;;;;;;4993911;28;20451;-79
2021/06/25 01:18:40;;;;;;;6.78;3.75;;;15.70;79.80;;;;;;4993223;28;20023;-79
2021/06/25 01:21:06;;;;;;;5.55;3.50;;;15.60;79.90;;;;;;4976364;28;20029;-79
2021/06/25 01:23:37;;;;;;;5.90;3.60;;;15.60;80.00;;;;;;4993470;28;20029;-79
2021/06/25 01:26:03;;;;;;;6.43;3.80;;;15.60;80.20;;;;;;4976414;28;20490;-79
2021/06/25 01:28:29;;;;;;;6.57;4.10;;;15.50;80.20;;;;;;4993311;28;20023;-79
2021/06/25 01:30:54;;;;;;;6.25;3.60;;;15.50;80.20;;;;;;4976127;28;20434;-79
2021/06/25 01:33:20;;;;;;;7.70;3.58;;;15.40;80.20;;;;;;4993378;28;20033;-79
2021/06/25 01:35:47;;;;;;;7.38;4.00;;;15.40;80.30;;;;;;4993026;28;20037;-79
2021/06/25 01:38:14;;;;;;;6.18;3.60;;;15.40;80.40;;;;;;4993434;28;20022;-79
2021/06/25 01:40:41;;;;;;;10.00;4.05;;;15.40;80.40;;;;;;4992916;28;20062;-79
2021/06/25 01:43:08;;;;;;;5.57;3.72;;;15.40;80.40;;;;;;4976005;28;20475;-79
2021/06/25 01:45:37;;;;;;;6.88;3.70;;;15.40;80.40;;;;;;4975131;28;20030;-79
2021/06/25 01:48:04;;;;;;;6.07;3.55;;;15.40;80.40;;;;;;4975792;28;20022;-80
2021/06/25 01:50:42;;;;;;;8.13;4.13;;;15.40;80.40;;;;;;4992403;28;20092;-79
2021/06/25 01:53:11;;;;;;;8.90;4.30;;;15.30;80.40;;;;;;4975899;28;20109;-78
2021/06/25 01:55:40;;;;;;;8.02;4.45;;;15.30;80.50;;;;;;4974611;28;20028;-78
2021/06/25 01:58:07;;;;;;;6.82;4.03;;;15.20;80.70;;;;;;4975634;28;20018;-79
2021/06/25 02:00:33;;;;;;;8.57;4.00;;;15.10;80.80;;;;;;4974781;28;20030;-78
2021/06/25 02:02:59;;;;;;;8.85;3.97;;;15.10;80.90;;;;;;4978984;28;20041;-79
2021/06/25 02:05:24;;;;;;;7.40;4.05;;;15.00;81.00;;;;;;4972885;28;20384;-79
2021/06/25 02:07:50;;;;;;;7.28;4.20;;;15.00;81.20;;;;;;4973917;28;20031;-79
2021/06/25 02:10:15;;;;;;;7.50;4.22;;;15.00;81.20;;;;;;4972192;28;20034;-79
2021/06/25 02:12:41;;;;;;;8.18;4.43;;;15.00;81.20;;;;;;4972904;28;20029;-78
2021/06/25 02:15:10;;;;;;;7.55;3.72;;;14.90;81.10;;;;;;4973540;28;20480;-78
2021/06/25 02:17:35;;;;;;;7.28;4.45;;;14.90;81.10;;;;;;4955487;28;20031;-79
2021/06/25 02:20:02;;;;;;;8.68;4.80;;;14.90;81.10;;;;;;4973590;28;20110;-79
2021/06/25 02:22:28;;;;;;;7.68;4.20;;;14.80;81.10;;;;;;4955310;28;20070;-78
2021/06/25 02:24:53;;;;;;;9.57;5.07;;;14.80;81.10;;;;;;4973371;28;20490;-79
2021/06/25 02:27:19;;;;;;;10.93;4.57;;;14.70;81.00;;;;;;4973332;28;20037;-78
2021/06/25 02:29:44;;;;;;;8.95;4.63;;;14.70;80.80;;;;;;4972838;28;20230;-79
2021/06/25 02:32:10;;;;;;;7.47;4.43;;;14.70;80.70;;;;;;4971940;28;20030;-78
2021/06/25 02:34:36;;;;;;;7.28;4.22;;;14.70;80.70;;;;;;4971316;28;20025;-79
2021/06/25 02:37:02;;;;;;;8.15;4.32;;;14.70;80.70;;;;;;4972118;28;20522;-78
2021/06/25 02:39:27;;;;;;;8.95;3.90;;;14.60;80.60;;;;;;4971460;28;20099;-79
2021/06/25 02:41:53;;;;;;;7.50;3.95;;;14.60;80.60;;;;;;4973238;28;20383;-77
2021/06/25 02:44:18;;;;;;;7.82;4.38;;;14.60;80.70;;;;;;4971987;28;20031;-80
2021/06/25 02:46:44;;;;;;;7.07;3.90;;;14.50;80.50;;;;;;4971217;28;20034;-80
2021/06/25 02:49:10;;;;;;;9.18;5.00;;;14.50;80.60;;;;;;4973009;28;20035;-80
2021/06/25 02:51:36;;;;;;;7.80;4.20;;;14.40;80.50;;;;;;4971215;28;20384;-80
2021/06/25 02:54:01;;;;;;;7.68;4.57;;;14.50;80.50;;;;;;4971892;28;20129;-80
2021/06/25 02:56:27;;;;;;;9.27;4.38;;;14.40;80.30;;;;;;4972809;28;20059;-81
2021/06/25 02:58:53;;;;;;;7.30;4.38;;;14.40;80.30;;;;;;4983596;28;20469;-80
2021/06/25 03:01:18;;;;;;;7.93;4.78;;;14.40;80.30;;;;;;4986901;28;20050;-80
2021/06/25 03:03:44;;;;;;;7.85;4.40;;;14.40;80.20;;;;;;4974586;28;20402;-80
2021/06/25 03:06:10;;;;;;;9.02;5.00;;;14.40;80.20;;;;;;4974504;28;20079;-80
2021/06/25 03:08:35;;;;;;;9.27;5.03;;;14.40;80.30;;;;;;4995984;28;20034;-80
2021/06/25 03:11:01;;;;;;;9.02;5.05;;;14.40;80.20;;;;;;4978862;28;20034;-79
2021/06/25 03:13:27;;;;;;;8.77;4.63;;;14.40;80.30;;;;;;4978726;28;20371;-80
2021/06/25 03:15:53;;;;;;;8.88;4.75;;;14.40;80.30;;;;;;4995325;28;20466;-80
2021/06/25 03:18:19;;;;;;;9.18;4.97;;;14.30;80.10;;;;;;4995634;28;20026;-84
2021/06/25 03:20:45;;;;;;;8.18;4.40;;;14.30;80.20;;;;;;4995300;28;20469;-79
2021/06/25 03:23:11;;;;;;;8.75;4.53;;;14.30;80.30;;;;;;4998153;28;20080;-78
2021/06/25 03:25:37;;;;;;;7.70;4.32;;;14.30;80.30;;;;;;4979053;28;20081;-77
2021/06/25 03:28:04;;;;;;;7.88;4.47;;;14.20;80.30;;;;;;4996098;28;20026;-78
2021/06/25 03:30:31;;;;;;;8.52;4.68;;;14.20;80.30;;;;;;4995819;28;20410;-80
2021/06/25 03:32:57;;;;;;;8.25;4.30;;;14.20;80.30;;;;;;4995552;28;20031;-77
2021/06/25 03:35:22;;;;;;;9.57;4.80;;;14.20;80.30;;;;;;4994189;28;20018;-78
2021/06/25 03:37:48;;;;;;;9.20;4.72;;;14.20;80.30;;;;;;4976694;28;20054;-79
2021/06/25 03:40:15;;;;;;;6.85;4.10;;;14.20;80.10;;;;;;4977688;28;20022;-78
2021/06/25 03:42:42;;;;;;;7.60;4.32;;;14.30;80.00;;;;;;4977038;28;20031;-79
2021/06/25 03:45:09;;;;;;;11.40;4.72;;;14.30;79.90;;;;;;4977954;28;20022;-80
2021/06/25 03:47:35;;;;;;;9.73;5.25;;;14.30;79.90;;;;;;4994604;28;20162;-79
2021/06/25 03:50:03;;;;;;;7.68;4.82;;;14.30;79.80;;;;;;4995142;28;20387;-79
2021/06/25 03:52:28;;;;;;;9.05;4.85;;;14.30;79.80;;;;;;4995437;28;20110;-79
2021/06/25 03:54:54;;;;;;;8.48;4.28;;;14.30;79.80;;;;;;4994517;28;20034;-79
2021/06/25 03:57:20;;;;;;;11.55;5.63;;;14.30;79.70;;;;;;4977860;28;20364;-79
2021/06/25 03:59:45;;;;;;;8.30;3.85;;;14.40;79.70;;;;;;4977200;28;20022;-79
2021/06/25 04:02:11;;;;;;;8.35;4.55;;;14.40;79.60;;;;;;4978059;28;20022;-79
2021/06/25 04:04:37;;;;;;;8.00;4.40;;;14.40;79.60;;;;;;4976863;28;20113;-78
2021/06/25 04:07:05;;;;;;;7.15;4.15;;;14.50;79.80;;;;;;4995118;28;20463;-79
2021/06/25 04:09:32;;;;;;;7.88;4.85;;;14.60;79.70;;;;;;4995035;28;20031;-78
2021/06/25 04:11:57;;;;;;;9.73;5.30;;;14.60;79.70;;;;;;4976884;28;20026;-79
2021/06/25 04:14:24;;;;;;;9.63;5.35;;;14.60;79.60;;;;;;4977800;28;20104;-78
2021/06/25 04:16:49;;;;;;;10.45;5.75;;;14.70;79.50;;;;;;4977001;28;20026;-79
2021/06/25 04:19:15;;;;;;;10.38;5.85;;;14.70;79.50;;;;;;4977290;28;20045;-79
2021/06/25 04:21:40;;;;;;;12.05;5.93;;;14.80;79.50;;;;;;4976755;28;20500;-78
2021/06/25 04:24:06;;;;;;;11.18;5.82;;;14.80;79.30;;;;;;4994544;28;20109;-78
2021/06/25 04:26:33;;;;;;;13.40;6.60;;;14.90;79.30;;;;;;4977337;28;20054;-79
2021/06/25 04:28:59;;;;;;;12.80;6.28;;;14.90;79.20;;;;;;4994136;28;20033;-79
2021/06/25 04:31:25;;;;;;;11.38;6.20;;;15.00;79.10;;;;;;4977404;28;20117;-79
2021/06/25 04:33:50;;;;;;;12.55;6.05;;;15.00;78.90;;;;;;4976593;28;20477;-79
2021/06/25 04:36:16;;;;;;;13.13;6.63;;;15.10;78.90;;;;;;4977147;28;20403;-79
2021/06/25 04:38:42;;;;;;;11.38;6.32;;;15.20;78.80;;;;;;4976462;28;20025;-79
2021/06/25 04:41:07;;;;;;;11.38;6.10;;;15.20;78.70;;;;;;4976985;28;20482;-80
2021/06/25 04:43:33;;;;;;;10.82;6.00;;;15.30;78.50;;;;;;4994255;28;20019;-79
2021/06/25 04:45:59;;;;;;;13.88;6.68;;;15.40;78.60;;;;;;4993757;28;20031;-78
2021/06/25 04:48:26;;;;;;;13.00;6.68;;;15.40;78.40;;;;;;4994423;28;20026;-79
2021/06/25 04:50:52;;;;;;;13.88;7.40;;;15.40;78.40;;;;;;4975841;28;20026;-78
2021/06/25 04:53:18;;;;;;;11.05;6.05;;;15.50;78.40;;;;;;4976846;28;20100;-79
2021/06/25 04:55:45;;;;;;;12.80;6.88;;;15.50;78.50;;;;;;4976146;28;20026;-80
2021/06/25 04:58:16;;;;;;;13.48;7.30;;;15.50;78.50;;;;;;4976767;28;20049;-78
2021/06/25 05:00:42;;;;;;;10.95;6.28;;;15.50;78.60;;;;;;4993741;28;20027;-80
2021/06/25 05:03:09;;;;;;;14.30;6.93;;;15.50;78.60;;;;;;4993940;28;20034;-79
2021/06/25 05:05:36;;;;;;;14.63;7.13;;;15.60;78.40;;;;;;4993605;28;20052;-79
2021/06/25 05:08:03;;;;;;;13.48;6.88;;;15.50;78.30;;;;;;4994067;28;20027;-79
2021/06/25 05:10:28;;;;;;;12.63;6.88;;;15.50;78.30;;;;;;4976447;28;20022;-77
2021/06/25 05:12:54;;;;;;;14.85;7.45;;;15.60;78.30;;;;;;4975828;28;20113;-79
2021/06/25 05:15:20;;;;;;;12.93;6.63;;;15.60;78.30;;;;;;4993849;28;20081;-78
2021/06/25 05:17:50;;;;;;;14.15;6.78;;;15.60;78.30;;;;;;4993235;28;20028;-78
2021/06/25 05:20:17;;;;;;;12.23;6.68;;;15.70;78.40;;;;;;4993751;28;20022;-78
2021/06/25 05:22:44;;;;;;;13.80;6.65;;;15.70;78.20;;;;;;4975656;28;20070;-79
2021/06/25 05:25:10;;;;;;;14.02;7.53;;;15.70;78.10;;;;;;4993665;28;20034;-80
2021/06/25 05:27:35;;;;;;;15.27;7.43;;;15.70;78.20;;;;;;4976095;28;20034;-80
2021/06/25 05:30:01;;;;;;;15.52;6.82;;;15.70;78.20;;;;;;4974697;28;20034;-80
2021/06/25 05:32:27;;;;;;;12.88;5.72;;;15.70;78.10;;;;;;4993163;28;20065;-80
2021/06/25 05:34:52;;;;;;;12.82;6.38;;;15.70;77.80;;;;;;4992878;28;20475;-78
2021/06/25 05:37:18;;;;;;;12.23;6.38;;;15.80;77.70;;;;;;4993310;28;20125;-79
2021/06/25 05:39:43;;;;;;;12.38;6.35;;;15.80;77.60;;;;;;4975459;28;20497;-78
2021/06/25 05:42:10;;;;;;;14.05;7.05;;;15.90;77.60;;;;;;4976099;28;20097;-78
2021/06/25 05:44:36;;;;;;;9.90;5.38;;;16.00;77.50;;;;;;4993296;28;20022;-79
2021/06/25 05:47:03;;;;;;;11.43;6.20;;;16.10;77.20;;;;;;4975070;28;20113;-78
2021/06/25 05:49:29;;;;;;;14.52;6.35;;;16.10;77.10;;;;;;4975854;28;20037;-78
2021/06/25 05:51:55;;;;;;;13.77;6.22;;;16.20;76.80;;;;;;4992666;28;20026;-78
2021/06/25 05:54:20;;;;;;;10.98;5.72;;;16.20;76.50;;;;;;4992778;28;20073;-79
2021/06/25 05:56:46;;;;;;;9.45;5.28;;;16.30;76.30;;;;;;4975047;28;20121;-79
2021/06/25 05:59:11;;;;;;;10.13;5.15;;;16.30;75.90;;;;;;4993167;28;20026;-79
2021/06/25 06:01:37;;;;;;;10.40;5.53;;;16.30;75.70;;;;;;4993040;28;20026;-79
2021/06/25 06:04:03;;;;;;;11.82;5.45;;;16.30;75.50;;;;;;4974905;28;20426;-79
2021/06/25 06:06:29;;;;;;;12.40;6.45;;;16.30;75.40;;;;;;4992409;28;20056;-79
2021/06/25 06:08:54;;;;;;;12.82;5.43;;;16.40;75.30;;;;;;4974948;28;20066;-79
2021/06/25 06:11:20;;;;;;;6.88;3.50;;;16.40;75.00;;;;;;4975427;28;20458;-79
2021/06/25 06:13:46;;;;;;;12.57;5.68;;;16.50;74.80;;;;;;4992233;28;20018;-79
2021/06/25 06:16:12;;;;;;;11.65;5.65;;;16.50;74.40;;;;;;4975369;28;20034;-80
2021/06/25 06:18:46;;;;;;;11.73;5.07;;;16.60;74.10;;;;;;4992840;28;20022;-79
2021/06/25 06:21:13;;;;;;;9.45;5.32;;;16.60;73.70;;;;;;4992895;28;20022;-79
2021/06/25 06:32:09;;;;;;;10.85;5.05;;;16.70;73.30;;;;;;4992199;28;20045;-80
2021/06/25 06:34:36;;;;;;;11.70;5.35;;;16.80;73.30;;;;;;4993009;28;20105;-80
2021/06/25 06:37:02;;;;;;;8.73;5.10;;;16.80;73.10;;;;;;4992073;28;20030;-78
2021/06/25 06:39:29;;;;;;;10.20;5.10;;;16.80;72.80;;;;;;4975640;28;20018;-80
2021/06/25 06:41:56;;;;;;;11.50;4.90;;;16.70;72.60;;;;;;4978616;28;20026;-80
2021/06/25 06:44:22;;;;;;;7.78;4.47;;;16.80;72.40;;;;;;4979502;28;20125;-81
2021/06/25 06:46:47;;;;;;;6.78;4.28;;;16.80;72.40;;;;;;4978998;28;20121;-80
2021/06/25 06:49:13;;;;;;;9.25;4.93;;;16.80;72.20;;;;;;4979391;28;20034;-79
2021/06/25 06:51:41;;;;;;;15.68;5.80;;;16.80;71.90;;;;;;4979068;28;20032;-78
2021/06/25 06:54:07;;;;;;;13.20;6.45;;;16.80;71.70;;;;;;4995885;28;20031;-79
2021/06/25 06:56:33;;;;;;;10.65;5.45;;;16.80;71.30;;;;;;4978792;28;20049;-78
2021/06/25 06:59:00;;;;;;;9.68;5.30;;;16.80;71.30;;;;;;4995857;28;20077;-79
2021/06/25 07:01:28;;;;;;;11.80;5.80;;;16.90;71.50;;;;;;4996393;28;20457;-79
2021/06/25 07:03:53;;;;;;;10.38;5.20;;;16.90;71.50;;;;;;4995592;28;20026;-80
2021/06/25 07:06:19;;;;;;;11.15;5.75;;;16.90;71.50;;;;;;4978635;28;20099;-78
2021/06/25 07:08:45;;;;;;;12.57;6.22;;;16.90;71.60;;;;;;4978894;28;20525;-79
2021/06/25 07:11:11;;;;;;;10.30;5.35;;;16.90;71.70;;;;;;4978077;28;20056;-79
2021/06/25 07:13:37;;;;;;;11.77;6.45;;;17.00;71.70;;;;;;4978609;28;20385;-79
2021/06/25 07:16:03;;;;;;;12.88;6.15;;;17.10;71.50;;;;;;4995171;28;20066;-79
2021/06/25 07:18:28;;;;;;;11.80;6.38;;;17.30;71.10;;;;;;4996039;28;20058;-79
2021/06/25 07:20:54;;;;;;;11.70;5.97;;;17.50;70.60;;;;;;4977816;28;20104;-78
2021/06/25 07:23:20;;;;;;;12.50;6.30;;;17.60;70.40;;;;;;4978547;28;20435;-79
2021/06/25 07:25:46;;;;;;;12.98;6.05;;;17.70;70.30;;;;;;4978280;28;20490;-78
2021/06/25 07:28:12;;;;;;;11.50;5.38;;;17.70;70.30;;;;;;4978286;28;20033;-79
2021/06/25 07:30:38;;;;;;;13.45;6.97;;;17.80;70.40;;;;;;4978322;28;20455;-79
2021/06/25 07:33:04;;;;;;;16.45;7.35;;;17.90;70.30;;;;;;4995159;28;20474;-79
2021/06/25 07:35:30;;;;;;;12.55;6.07;;;17.90;70.10;;;;;;4978120;28;20018;-79
2021/06/25 07:37:56;;;;;;;11.15;5.47;;;18.00;70.10;;;;;;4977524;28;20099;-78
2021/06/25 07:40:22;;;;;;;13.18;6.57;;;18.10;69.90;;;;;;4978096;28;20035;-78
2021/06/25 07:42:48;;;;;;;13.55;7.35;;;18.20;69.70;;;;;;4977877;28;20069;-79
2021/06/25 07:45:14;;;;;;;12.68;6.82;;;18.40;69.40;;;;;;4995476;28;20026;-80
2021/06/25 07:47:42;;;;;;;14.45;6.22;;;18.50;69.10;;;;;;4995351;28;20089;-79
2021/06/25 07:50:10;;;;;;;15.38;6.80;;;18.70;68.90;;;;;;4994885;28;20397;-79
2021/06/25 07:52:36;;;;;;;12.35;6.50;;;18.80;68.60;;;;;;4977037;28;20044;-79
2021/06/25 07:55:03;;;;;;;15.10;6.97;;;18.90;68.50;;;;;;4994822;28;20030;-79
2021/06/25 07:57:29;;;;;;;15.38;7.47;;;19.00;68.40;;;;;;4977731;28;20498;-80
2021/06/25 07:59:54;;;;;;;14.07;6.97;;;19.00;68.50;;;;;;4994393;28;20026;-80
2021/06/25 08:02:20;;;;;;;14.95;7.97;;;18.90;68.60;;;;;;4977401;28;20015;-80
2021/06/25 08:04:46;;;;;;;14.77;7.55;;;18.80;68.70;;;;;;4995083;28;20030;-79
2021/06/25 08:07:16;;;;;;;14.77;7.47;;;18.70;69.00;;;;;;4977663;28;20409;-79
2021/06/25 08:09:43;;;;;;;18.02;7.93;;;18.60;69.30;;;;;;4977999;28;20042;-79
2021/06/25 08:12:10;;;;;;;13.52;6.15;;;18.60;69.50;;;;;;4994562;28;20026;-80
2021/06/25 08:14:36;;;;;;;14.32;7.55;;;18.70;69.60;;;;;;4977586;28;20471;-79
2021/06/25 08:17:03;;;;;;;15.50;8.05;;;18.60;69.60;;;;;;4994308;28;20034;-80
2021/06/25 08:19:29;;;;;;;16.33;7.55;;;18.60;69.60;;;;;;4977579;28;20018;-78
2021/06/25 08:21:55;;;;;;;18.50;7.90;;;18.60;69.90;;;;;;4976833;28;20033;-78
2021/06/25 08:24:20;;;;;;;18.65;9.00;;;18.60;70.10;;;;;;4994834;28;20022;-78
2021/06/25 08:26:46;;;;;;;16.65;8.38;;;18.60;70.10;;;;;;4977341;28;20034;-80
2021/06/25 08:29:11;;;;;;;17.45;8.75;;;18.60;70.20;;;;;;4994299;28;20141;-79
2021/06/25 08:31:37;;;;;;;21.10;9.73;;;18.50;70.40;;;;;;4994988;28;20412;-79
2021/06/25 08:34:04;;;;;;;18.08;8.70;;;18.50;70.60;;;;;;4993960;28;20077;-79
2021/06/25 08:36:31;;;;;;;15.60;7.60;;;18.40;70.70;;;;;;4994690;28;20086;-79
2021/06/25 08:38:57;;;;;;;16.88;8.50;;;18.40;70.70;;;;;;4993715;28;20446;-79
2021/06/25 08:41:22;;;;;;;21.48;9.93;;;18.30;70.90;;;;;;4977398;28;20105;-79
2021/06/25 08:43:48;;;;;;;14.52;7.93;;;18.30;71.10;;;;;;4994626;28;20031;-79
2021/06/25 08:46:14;;;;;;;16.60;8.43;;;18.30;71.20;;;;;;4993687;28;20109;-79
2021/06/25 08:48:40;;;;;;;20.25;10.25;;;18.20;71.30;;;;;;4994398;28;20113;-79
2021/06/25 08:51:07;;;;;;;21.92;10.27;;;18.20;71.40;;;;;;4976337;28;20033;-79
2021/06/25 08:53:33;;;;;;;22.15;9.27;;;18.30;71.50;;;;;;4976821;28;20019;-78
2021/06/25 08:55:59;;;;;;;15.45;8.45;;;18.40;71.50;;;;;;4976188;28;20033;-79
2021/06/25 08:58:25;;;;;;;19.35;9.52;;;18.50;71.30;;;;;;4993832;28;20031;-79
2021/06/25 09:00:52;;;;;;;15.90;8.10;;;18.60;71.20;;;;;;4976558;28;20118;-79
2021/06/25 09:03:20;;;;;;;19.48;8.65;;;18.60;71.20;;;;;;4993957;28;20371;-79
2021/06/25 09:05:46;;;;;;;15.80;8.75;;;18.60;71.10;;;;;;4993587;28;20052;-79
2021/06/25 09:08:29;;;;;;;19.23;9.80;;;18.70;71.30;;;;;;4993452;28;20040;-78
2021/06/25 09:11:00;;;;;;;25.35;9.57;;;18.70;71.40;;;;;;4993388;28;20459;-80
2021/06/25 09:13:37;;;;;;;18.30;8.77;;;18.70;71.50;;;;;;4976441;28;20431;-79
2021/06/25 09:16:23;;;;;;;16.77;8.88;;;18.80;71.50;;;;;;4975902;28;20022;-80
2021/06/25 09:19:03;;;;;;;18.58;10.32;;;18.80;71.50;;;;;;4976373;28;20022;-80
2021/06/25 09:21:32;;;;;;;20.00;9.88;;;18.80;71.50;;;;;;4976142;28;20026;-80
2021/06/25 09:24:33;;;;;;;17.00;7.95;;;18.90;71.80;;;;;;4993097;28;20022;-79
2021/06/25 09:27:01;;;;;;;17.92;9.48;;;19.00;71.80;;;;;;4975675;28;20479;-79
2021/06/25 09:29:29;;;;;;;16.55;9.18;;;19.00;71.70;;;;;;4976090;28;20026;-78
2021/06/25 09:32:09;;;;;;;14.55;7.20;;;19.00;71.80;;;;;;4993314;28;20451;-79
2021/06/25 09:34:50;;;;;;;18.33;8.57;;;19.00;71.80;;;;;;4976189;28;20445;-79
2021/06/25 09:37:18;;;;;;;14.98;8.15;;;19.00;71.80;;;;;;4992833;28;20033;-79
2021/06/25 09:40:03;;;;;;;16.42;8.77;;;19.00;71.80;;;;;;4975874;28;20081;-79
2021/06/25 09:42:29;;;;;;;19.50;9.48;;;19.10;71.60;;;;;;4976181;28;20029;-79
2021/06/25 09:45:07;;;;;;;15.68;8.90;;;19.20;71.40;;;;;;4975944;28;20026;-80
2021/06/25 09:47:41;;;;;;;16.67;8.35;;;19.30;71.00;;;;;;4975823;28;20041;-79
2021/06/25 09:50:32;;;;;;;17.25;9.23;;;19.40;70.70;;;;;;4992684;28;20040;-79
2021/06/25 09:53:04;;;;;;;12.13;7.20;;;19.50;70.60;;;;;;4966001;28;20105;-79
2021/06/25 09:55:49;;;;;;;16.83;9.07;;;19.60;70.20;;;;;;4993253;28;20022;-79
2021/06/25 09:58:25;;;;;;;14.88;7.90;;;19.60;70.00;;;;;;4992471;28;20110;-79
2021/06/25 10:03:53;;;;;;;14.02;7.68;;;19.70;70.00;;;;;;4993317;28;20052;-80
2021/06/25 10:06:20;;;;;;;16.30;8.30;;;19.80;69.70;;;;;;4974881;28;20050;-80
2021/06/25 10:08:48;;;;;;;15.52;7.22;;;19.90;69.50;;;;;;4993173;28;20049;-80
2021/06/25 10:11:15;;;;;;;17.17;8.98;;;19.90;69.30;;;;;;4992415;28;20027;-79
2021/06/25 10:13:42;;;;;;;18.85;9.05;;;19.90;69.00;;;;;;4992892;28;20482;-80
2021/06/25 10:16:09;;;;;;;17.08;7.13;;;19.90;68.80;;;;;;4974367;28;20116;-80
2021/06/25 10:18:50;;;;;;;15.30;8.38;;;19.90;68.60;;;;;;4975388;28;20121;-79
2021/06/25 10:21:41;;;;;;;14.00;7.53;;;20.10;68.40;;;;;;4992121;28;20474;-79
2021/06/25 10:24:10;;;;;;;12.25;6.82;;;20.30;68.10;;;;;;4970912;28;20030;-78
2021/06/25 10:26:37;;;;;;;19.20;8.85;;;20.30;67.30;;;;;;4992694;28;20099;-80
2021/06/25 10:29:04;;;;;;;15.63;7.95;;;20.30;67.40;;;;;;4991674;28;20485;-80
2021/06/25 10:31:29;;;;;;;17.40;9.40;;;20.30;67.50;;;;;;4974939;28;20026;-80
2021/06/25 10:33:56;;;;;;;15.35;7.72;;;20.10;67.20;;;;;;4992966;28;20033;-80
2021/06/25 10:36:27;;;;;;;14.88;7.88;;;20.00;67.70;;;;;;4974496;28;20056;-80
2021/06/25 10:38:53;;;;;;;16.52;8.98;;;19.80;68.10;;;;;;4975183;28;20434;-80
2021/06/25 10:41:21;;;;;;;15.27;8.25;;;19.80;68.40;;;;;;4992021;28;20022;-80
2021/06/25 10:43:50;;;;;;;13.82;7.82;;;19.70;68.60;;;;;;4975241;28;20538;-80
2021/06/25 10:46:34;;;;;;;15.93;8.65;;;19.60;68.90;;;;;;4974326;28;20493;-80
2021/06/25 10:49:03;;;;;;;15.75;8.30;;;19.50;69.40;;;;;;4975116;28;20526;-80
2021/06/25 10:51:32;;;;;;;18.02;9.80;;;19.40;69.60;;;;;;4975021;28;20030;-78
2021/06/25 10:54:17;;;;;;;16.08;8.45;;;19.50;69.70;;;;;;4974718;28;20015;-78
2021/06/25 10:56:47;;;;;;;14.05;7.05;;;19.50;69.70;;;;;;4974933;28;20030;-79
2021/06/25 10:59:30;;;;;;;14.48;7.30;;;19.70;69.50;;;;;;4974086;28;20057;-79
2021/06/25 11:02:01;;;;;;;9.30;5.15;;;19.80;69.10;;;;;;4992469;28;20018;-79
2021/06/25 11:04:30;;;;;;;9.48;5.32;;;19.80;68.90;;;;;;4975117;28;20030;-80
2021/06/25 11:06:57;;;;;;;16.33;9.40;;;19.90;68.60;;;;;;4971196;28;20054;-80
2021/06/25 11:09:25;;;;;;;14.18;8.27;;;20.10;68.40;;;;;;4972279;28;20025;-79
2021/06/25 11:12:14;;;;;;;15.20;7.65;;;20.20;68.10;;;;;;4971824;28;20118;-79
2021/06/25 11:14:40;;;;;;;14.77;7.95;;;20.30;68.00;;;;;;4971494;28;20023;-79
2021/06/25 11:17:06;;;;;;;14.65;7.50;;;20.30;67.90;;;;;;4972166;28;20074;-80
2021/06/25 11:19:41;;;;;;;16.13;8.98;;;20.40;67.80;;;;;;4972752;28;20102;-80
2021/06/25 11:22:39;;;;;;;15.65;8.32;;;20.50;67.60;;;;;;4972341;28;20097;-80
2021/06/25 11:25:10;;;;;;;14.10;7.60;;;20.70;67.60;;;;;;4971170;28;20027;-79
2021/06/25 11:28:10;;;;;;;12.07;7.85;;;20.70;67.30;;;;;;4972370;28;20376;-79
2021/06/25 11:30:51;;;;;;;14.57;7.72;;;20.80;67.30;;;;;;4976358;28;20026;-80
2021/06/25 11:33:28;;;;;;;16.02;8.88;;;20.80;67.30;;;;;;4975725;28;20073;-80
2021/06/25 11:35:55;;;;;;;15.10;8.02;;;20.90;67.00;;;;;;4975056;28;20046;-80
2021/06/25 11:38:52;;;;;;;17.75;8.48;;;20.90;66.80;;;;;;4971130;28;20102;-80
2021/06/25 11:41:17;;;;;;;16.98;9.43;;;20.90;66.80;;;;;;4968749;28;20041;-83
2021/06/25 11:43:43;;;;;;;15.30;8.27;;;20.90;66.80;;;;;;4973881;28;20027;-84
2021/06/25 11:46:09;;;;;;;13.13;7.90;;;21.00;66.70;;;;;;4973722;28;20379;-83
2021/06/25 11:48:37;;;;;;;15.65;8.63;;;21.20;66.50;;;;;;4974474;28;20486;-85
2021/06/25 11:51:03;;;;;;;13.13;6.88;;;21.40;66.20;;;;;;4974955;28;20391;-84
2021/06/25 11:53:30;;;;;;;17.45;9.00;;;21.50;65.90;;;;;;4975613;28;20031;-83
2021/06/25 11:55:56;;;;;;;15.48;9.02;;;21.50;65.80;;;;;;4939028;28;20139;-82
2021/06/25 11:58:22;;;;;;;12.52;6.43;;;21.60;65.70;;;;;;4966567;28;20047;-81
2021/06/25 12:00:59;;;;;;;17.98;9.95;;;21.60;65.70;;;;;;4974531;28;20038;-80
2021/06/25 12:03:25;;;;;;;17.17;8.90;;;21.70;65.60;;;;;;4969016;28;20031;-76
2021/06/25 12:05:50;;;;;;;14.63;8.70;;;21.70;65.50;;;;;;4967357;28;20475;-81
2021/06/25 12:08:16;;;;;;;15.90;8.40;;;21.90;65.30;;;;;;4899492;28;20489;-82
2021/06/25 12:10:59;;;;;;;15.27;8.73;;;22.00;65.00;;;;;;4953454;29;20086;-79
2021/06/25 12:13:26;;;;;;;17.90;9.20;;;22.10;64.70;;;;;;4952713;28;20027;-79
2021/06/25 12:15:53;;;;;;;15.40;9.00;;;22.10;64.60;;;;;;4958434;28;20035;-79
2021/06/25 12:18:27;;;;;;;12.02;6.70;;;22.20;64.70;;;;;;4963910;28;20030;-81
2021/06/25 12:21:10;;;;;;;13.27;8.18;;;22.20;64.70;;;;;;4955635;28;20026;-79
2021/06/25 12:23:36;;;;;;;12.02;6.72;;;22.30;64.50;;;;;;4962352;28;20024;-80
2021/06/25 12:26:15;;;;;;;11.07;6.82;;;22.40;64.30;;;;;;4955850;28;20482;-80
2021/06/25 12:28:41;;;;;;;11.18;6.40;;;22.40;63.70;;;;;;4960078;28;20551;-80
2021/06/25 12:31:15;;;;;;;9.23;4.47;;;22.30;63.60;;;;;;4963329;28;20564;-80
2021/06/25 12:33:40;;;;;;;11.05;6.03;;;22.20;63.40;;;;;;4961958;28;20098;-80
2021/06/25 12:36:06;;;;;;;11.82;6.43;;;22.20;63.40;;;;;;4961383;28;20487;-81
2021/06/25 12:38:33;;;;;;;11.88;5.50;;;22.10;63.40;;;;;;4960744;28;20034;-81
2021/06/25 12:41:00;;;;;;;10.13;6.13;;;22.10;63.50;;;;;;4961435;28;20036;-80
2021/06/25 12:43:31;;;;;;;9.82;5.25;;;22.10;63.50;;;;;;4945922;28;20118;-80
2021/06/25 12:45:58;;;;;;;12.05;5.70;;;22.10;63.10;;;;;;4956432;28;20046;-80
2021/06/25 12:48:26;;;;;;;9.93;4.97;;;22.20;62.90;;;;;;4958847;28;20328;-80
2021/06/25 12:51:02;;;;;;;9.35;4.95;;;22.20;62.70;;;;;;4954345;28;20109;-81
2021/06/25 12:53:31;;;;;;;9.35;4.20;;;22.30;62.50;;;;;;4953100;28;20034;-80
2021/06/25 12:56:03;;;;;;;9.25;5.03;;;22.30;62.10;;;;;;4954256;28;20470;-80